createdAt,value
2022-08-14T00:00:04.266Z,4.93
2022-08-14T00:02:40.368Z,5.28
2022-08-14T00:05:10.711Z,5.60
2022-08-14T00:07:42.485Z,5.37
2022-08-14T00:10:52.828Z,5.43
2022-08-14T00:13:06.907Z,5.35
2022-08-14T00:15:43.631Z,5.32
2022-08-14T00:18:30.584Z,5.07
2022-08-14T00:21:11.196Z,5.10
2022-08-14T00:23:41.833Z,4.20
2022-08-14T00:26:21.524Z,4.22
2022-08-14T00:29:16.296Z,4.43
2022-08-14T00:31:46.080Z,4.35
2022-08-14T00:34:36.534Z,5.15
2022-08-14T00:37:03.813Z,4.72
2022-08-14T00:39:33.986Z,4.53
2022-08-14T00:42:02.705Z,4.85
2022-08-14T00:44:32.208Z,4.82
2022-08-14T00:47:02.497Z,5.40
2022-08-14T00:49:38.017Z,5.18
2022-08-14T00:52:14.032Z,5.43
2022-08-14T00:54:52.921Z,4.95
2022-08-14T00:57:27.803Z,5.47
2022-08-14T00:59:57.373Z,5.70
2022-08-14T01:02:28.203Z,5.90
2022-08-14T01:04:58.333Z,5.40
2022-08-14T01:07:28.576Z,5.45
2022-08-14T01:10:09.606Z,5.80
2022-08-14T01:12:41.703Z,5.53
2022-08-14T01:15:14.803Z,6.00
2022-08-14T01:18:03.277Z,4.75
2022-08-14T01:20:51.055Z,4.90
2022-08-14T01:23:21.908Z,5.30
2022-08-14T01:25:51.827Z,5.65
2022-08-14T01:28:34.192Z,5.60
2022-08-14T01:31:12.513Z,6.00
2022-08-14T01:35:16.074Z,5.88
2022-08-14T01:36:38.100Z,6.20
2022-08-14T01:39:13.151Z,6.20
2022-08-14T01:41:43.964Z,6.43
2022-08-14T01:44:32.059Z,6.30
2022-08-14T01:47:05.887Z,5.95
2022-08-14T01:49:35.418Z,7.28
2022-08-14T01:52:09.034Z,6.50
2022-08-14T01:54:58.034Z,7.00
2022-08-14T01:57:49.645Z,6.20
2022-08-14T02:00:16.896Z,6.00
2022-08-14T02:02:46.932Z,5.47
2022-08-14T02:05:21.462Z,5.95
2022-08-14T02:08:08.547Z,5.25
2022-08-14T02:10:46.690Z,5.15
2022-08-14T02:13:19.793Z,5.50
2022-08-14T02:15:50.335Z,5.35
2022-08-14T02:18:19.149Z,5.32
2022-08-14T02:20:49.099Z,4.97
2022-08-14T02:23:28.902Z,5.20
2022-08-14T02:26:24.708Z,4.90
2022-08-14T02:28:57.728Z,5.55
2022-08-14T02:31:42.388Z,5.25
2022-08-14T02:34:14.765Z,4.82
2022-08-14T02:37:04.410Z,4.90
2022-08-14T02:39:37.111Z,4.82
2022-08-14T02:42:12.785Z,5.07
2022-08-14T02:44:49.410Z,4.68
2022-08-14T02:47:20.531Z,5.07
2022-08-14T02:49:54.911Z,4.68
2022-08-14T02:52:56.190Z,5.00
2022-08-14T02:55:19.827Z,5.18
2022-08-14T02:58:03.107Z,4.72
2022-08-14T03:00:33.455Z,5.00
2022-08-14T03:03:07.720Z,4.85
2022-08-14T03:05:41.171Z,4.88
2022-08-14T03:08:11.863Z,4.75
2022-08-14T03:10:49.050Z,4.95
2022-08-14T03:13:21.995Z,4.82
2022-08-14T03:15:55.873Z,4.90
2022-08-14T03:18:32.017Z,4.65
2022-08-14T03:21:07.627Z,4.38
2022-08-14T03:23:38.590Z,5.22
2022-08-14T03:26:12.530Z,4.57
2022-08-14T03:28:43.721Z,4.38
2022-08-14T03:31:13.301Z,4.53
2022-08-14T03:33:43.128Z,4.57
2022-08-14T03:37:39.530Z,5.45
2022-08-14T03:39:14.854Z,4.63
2022-08-14T03:41:49.927Z,5.00
2022-08-14T03:45:26.419Z,4.82
2022-08-14T03:47:08.803Z,4.63
2022-08-14T03:49:42.321Z,4.45
2022-08-14T03:52:18.164Z,4.57
2022-08-14T03:55:01.056Z,4.57
2022-08-14T03:57:32.401Z,5.00
2022-08-14T04:00:04.850Z,5.00
2022-08-14T04:02:46.796Z,5.05
2022-08-14T04:05:16.399Z,4.50
2022-08-14T04:07:49.625Z,4.68
2022-08-14T04:10:34.048Z,4.53
2022-08-14T04:13:03.583Z,5.00
2022-08-14T04:15:56.575Z,4.78
2022-08-14T04:18:23.468Z,4.82
2022-08-14T04:20:55.326Z,4.40
2022-08-14T04:23:29.998Z,4.60
2022-08-14T04:26:02.023Z,4.75
2022-08-14T04:29:08.917Z,4.10
2022-08-14T04:32:56.280Z,4.30
2022-08-14T04:34:11.908Z,4.68
2022-08-14T04:36:59.921Z,4.20
2022-08-14T04:39:58.689Z,4.25
2022-08-14T04:42:47.242Z,4.45
2022-08-14T04:45:20.848Z,4.63
2022-08-14T04:48:10.045Z,4.47
2022-08-14T04:50:44.399Z,4.70
2022-08-14T04:53:15.271Z,4.20
2022-08-14T04:55:45.941Z,4.50
2022-08-14T04:58:21.983Z,4.47
2022-08-14T05:01:01.608Z,4.20
2022-08-14T05:03:33.376Z,4.57
2022-08-14T05:06:03.295Z,4.40
2022-08-14T05:08:50.715Z,4.80
2022-08-14T05:11:20.905Z,4.55
2022-08-14T05:16:38.514Z,4.03
2022-08-14T05:19:18.755Z,4.60
2022-08-14T05:22:01.070Z,4.30
2022-08-14T05:24:45.260Z,4.63
2022-08-14T05:27:22.708Z,4.47
2022-08-14T05:29:53.534Z,4.68
2022-08-14T05:32:22.435Z,4.30
2022-08-14T05:34:52.908Z,4.38
2022-08-14T05:37:22.393Z,4.00
2022-08-14T05:39:51.201Z,3.80
2022-08-14T05:42:21.551Z,4.72
2022-08-14T05:44:51.111Z,4.35
2022-08-14T05:47:23.355Z,4.32
2022-08-14T05:49:53.357Z,3.90
2022-08-14T05:52:26.497Z,4.20
2022-08-14T05:55:08.755Z,4.00
2022-08-14T05:57:47.429Z,3.92
2022-08-14T06:00:28.192Z,3.92
2022-08-14T06:03:00.186Z,4.22
2022-08-14T06:05:31.157Z,3.75
2022-08-14T06:08:00.433Z,4.20
2022-08-14T06:10:30.574Z,4.53
2022-08-14T06:13:02.627Z,3.70
2022-08-14T06:18:00.625Z,3.72
2022-08-14T06:20:34.285Z,4.13
2022-08-14T06:23:03.393Z,3.83
2022-08-14T06:25:32.561Z,4.38
2022-08-14T06:28:03.885Z,3.92
2022-08-14T06:30:46.416Z,3.87
2022-08-14T06:33:16.021Z,17.13
2022-08-14T06:35:48.502Z,10.70
2022-08-14T06:38:18.447Z,10.38
2022-08-14T06:40:47.484Z,9.32
2022-08-14T06:43:17.045Z,8.63
2022-08-14T06:45:53.754Z,7.55
2022-08-14T06:48:24.262Z,6.43
2022-08-14T06:50:55.221Z,4.82
2022-08-14T06:53:27.583Z,5.88
2022-08-14T06:56:00.685Z,4.80
2022-08-14T06:58:31.823Z,5.03
2022-08-14T07:01:26.835Z,4.65
2022-08-14T07:04:23.630Z,5.07
2022-08-14T07:06:59.203Z,4.65
2022-08-14T07:09:43.459Z,4.32
2022-08-14T07:12:56.040Z,4.47
2022-08-14T07:15:02.495Z,4.05
2022-08-14T07:17:34.335Z,4.47
2022-08-14T07:20:05.514Z,4.57
2022-08-14T07:22:50.125Z,4.50
2022-08-14T07:25:32.198Z,4.28
2022-08-14T07:28:02.023Z,4.47
2022-08-14T07:30:34.119Z,4.13
2022-08-14T07:33:04.327Z,4.38
2022-08-14T07:35:42.909Z,4.22
2022-08-14T07:38:19.087Z,4.78
2022-08-14T07:40:48.685Z,3.95
2022-08-14T07:43:22.204Z,4.18
2022-08-14T07:45:53.903Z,4.05
2022-08-14T07:48:25.266Z,3.97
2022-08-14T07:51:02.079Z,4.07
2022-08-14T07:53:34.182Z,4.38
2022-08-14T07:56:21.999Z,4.22
2022-08-14T07:58:58.388Z,4.43
2022-08-14T08:01:27.438Z,4.40
2022-08-14T08:04:00.420Z,3.83
2022-08-14T08:06:30.239Z,3.85
2022-08-14T08:09:03.298Z,4.43
2022-08-14T08:11:37.208Z,4.53
2022-08-14T08:14:16.377Z,4.18
2022-08-14T08:16:47.385Z,3.60
2022-08-14T08:19:20.022Z,4.32
2022-08-14T08:21:48.725Z,3.80
2022-08-14T08:24:20.871Z,3.58
2022-08-14T08:26:50.720Z,4.00
2022-08-14T08:29:28.271Z,3.97
2022-08-14T08:32:01.803Z,4.00
2022-08-14T08:34:45.338Z,4.18
2022-08-14T08:37:15.195Z,4.07
2022-08-14T08:40:02.351Z,3.92
2022-08-14T08:42:38.637Z,3.67
2022-08-14T08:45:17.197Z,4.25
2022-08-14T08:47:46.591Z,4.13
2022-08-14T08:50:31.289Z,4.47
2022-08-14T08:53:00.393Z,3.90
2022-08-14T08:58:02.081Z,3.95
2022-08-14T09:00:33.851Z,3.85
2022-08-14T09:03:04.367Z,4.10
2022-08-14T09:05:34.350Z,3.83
2022-08-14T09:08:26.694Z,4.20
2022-08-14T09:11:01.510Z,4.00
2022-08-14T09:13:33.202Z,4.30
2022-08-14T09:16:18.792Z,4.30
2022-08-14T09:18:47.861Z,4.05
2022-08-14T09:21:18.277Z,4.38
2022-08-14T09:24:30.247Z,4.07
2022-08-14T09:26:35.977Z,4.45
2022-08-14T09:29:08.198Z,3.95
2022-08-14T09:31:42.861Z,4.45
2022-08-14T09:34:27.773Z,4.50
2022-08-14T09:37:23.024Z,4.10
2022-08-14T09:39:57.780Z,4.93
2022-08-14T09:42:37.411Z,4.32
2022-08-14T09:47:52.222Z,4.35
2022-08-14T09:50:26.015Z,4.50
2022-08-14T09:52:58.108Z,4.65
2022-08-14T09:55:28.318Z,4.65
2022-08-14T09:58:15.039Z,4.70
2022-08-14T10:00:49.423Z,4.28
2022-08-14T10:03:30.325Z,4.90
2022-08-14T10:06:10.208Z,4.90
2022-08-14T10:08:44.321Z,5.30
2022-08-14T10:11:23.096Z,4.75
2022-08-14T10:13:55.809Z,4.70
2022-08-14T10:16:33.716Z,4.95
2022-08-14T10:19:07.242Z,4.65
2022-08-14T10:21:38.964Z,5.05
2022-08-14T10:24:36.472Z,4.95
2022-08-14T10:27:06.911Z,4.53
2022-08-14T10:29:37.510Z,4.82
2022-08-14T10:32:17.778Z,4.30
2022-08-14T10:34:52.875Z,4.57
2022-08-14T10:37:23.798Z,4.30
2022-08-14T10:40:05.327Z,5.18
2022-08-14T10:42:41.025Z,4.50
2022-08-14T10:45:21.475Z,4.47
2022-08-14T10:48:07.834Z,4.90
2022-08-14T10:50:46.380Z,4.85
2022-08-14T10:53:15.852Z,4.95
2022-08-14T10:55:45.495Z,4.72
2022-08-14T10:58:15.059Z,4.43
2022-08-14T11:03:19.909Z,4.63
2022-08-14T11:05:57.139Z,4.57
2022-08-14T11:08:32.167Z,4.50
2022-08-14T11:11:03.112Z,4.40
2022-08-14T11:13:32.933Z,4.57
2022-08-14T11:16:03.698Z,4.23
2022-08-14T11:18:40.171Z,4.20
2022-08-14T11:21:10.997Z,3.95
2022-08-14T11:23:43.869Z,4.10
2022-08-14T11:26:14.096Z,4.18
2022-08-14T11:28:47.277Z,4.10
2022-08-14T11:31:18.241Z,4.40
2022-08-14T11:33:50.381Z,4.38
2022-08-14T11:36:24.484Z,4.78
2022-08-14T11:39:33.804Z,4.68
2022-08-14T11:42:55.201Z,4.63
2022-08-14T11:44:56.790Z,4.38
2022-08-14T11:47:35.088Z,4.10
2022-08-14T11:50:34.168Z,4.47
2022-08-14T11:53:08.484Z,4.15
2022-08-14T11:55:39.035Z,4.43
2022-08-14T11:58:10.346Z,4.30
2022-08-14T12:00:47.813Z,3.83
2022-08-14T12:03:19.962Z,4.57
2022-08-14T12:06:05.453Z,4.45
2022-08-14T12:08:38.587Z,4.40
2022-08-14T12:11:08.729Z,4.30
2022-08-14T12:13:38.809Z,4.13
2022-08-14T12:16:20.746Z,3.80
2022-08-14T12:18:50.906Z,4.13
2022-08-14T12:21:25.660Z,4.32
2022-08-14T12:24:04.972Z,3.75
2022-08-14T12:26:40.698Z,4.30
2022-08-14T12:29:11.186Z,4.18
2022-08-14T12:31:44.887Z,4.20
2022-08-14T12:34:20.709Z,4.15
2022-08-14T12:36:51.701Z,4.22
2022-08-14T12:39:23.757Z,3.90
2022-08-14T12:41:57.228Z,4.00
2022-08-14T12:44:33.655Z,4.18
2022-08-14T12:47:06.728Z,3.60
2022-08-14T12:49:35.736Z,4.22
2022-08-14T12:52:05.393Z,3.88
2022-08-14T12:54:57.482Z,3.60
2022-08-14T12:57:36.464Z,3.80
2022-08-14T13:00:23.188Z,3.70
2022-08-14T13:02:56.782Z,3.90
2022-08-14T13:05:27.440Z,3.90
2022-08-14T13:07:57.332Z,3.83
2022-08-14T13:13:19.708Z,3.67
2022-08-14T13:15:57.201Z,3.50
2022-08-14T13:18:27.841Z,3.65
2022-08-14T13:21:01.011Z,3.58
2022-08-14T13:23:36.130Z,3.50
2022-08-14T13:26:05.747Z,3.67
2022-08-14T13:29:00.575Z,3.67
2022-08-14T13:31:29.818Z,3.70
2022-08-14T13:34:00.260Z,3.92
2022-08-14T13:36:54.543Z,4.10
2022-08-14T13:39:19.603Z,3.47
2022-08-14T13:41:55.614Z,3.92
2022-08-14T13:44:28.750Z,3.50
2022-08-14T13:46:58.643Z,3.83
2022-08-14T13:49:28.987Z,3.53
2022-08-14T13:52:00.000Z,3.75
2022-08-14T13:54:32.729Z,3.72
2022-08-14T13:57:03.791Z,3.95
2022-08-14T13:59:37.756Z,3.95
2022-08-14T14:02:11.225Z,3.67
2022-08-14T14:05:05.560Z,3.55
2022-08-14T14:07:39.161Z,3.90
2022-08-14T14:10:13.415Z,3.30
2022-08-14T14:12:42.824Z,3.92
2022-08-14T14:15:13.761Z,3.95
2022-08-14T14:17:44.018Z,4.38
2022-08-14T14:20:15.038Z,4.25
2022-08-14T14:23:09.520Z,4.13
2022-08-14T14:25:48.019Z,3.95
2022-08-14T14:28:24.057Z,4.25
2022-08-14T14:30:57.190Z,3.83
2022-08-14T14:33:47.806Z,4.45
2022-08-14T14:36:21.432Z,4.05
2022-08-14T14:38:53.624Z,4.35
2022-08-14T14:41:24.290Z,4.53
2022-08-14T14:43:54.307Z,4.75
2022-08-14T14:46:35.982Z,5.43
2022-08-14T14:49:07.726Z,4.75
2022-08-14T14:51:36.873Z,4.55
2022-08-14T14:54:09.724Z,4.82
2022-08-14T14:56:48.201Z,4.53
2022-08-14T14:59:21.301Z,4.60
2022-08-14T15:01:52.014Z,4.60
2022-08-14T15:04:21.388Z,4.60
2022-08-14T15:06:52.964Z,5.07
2022-08-14T15:09:23.652Z,5.10
2022-08-14T15:11:52.586Z,5.18
2022-08-14T15:14:54.664Z,5.50
2022-08-14T15:17:11.930Z,5.07
2022-08-14T15:19:42.109Z,5.53
2022-08-14T15:22:25.484Z,5.75
2022-08-14T15:24:54.084Z,5.65
2022-08-14T15:27:26.687Z,5.43
2022-08-14T15:29:56.031Z,5.70
2022-08-14T15:32:25.996Z,5.82
2022-08-14T15:34:58.174Z,5.22
2022-08-14T15:37:32.876Z,5.80
2022-08-14T15:40:03.182Z,5.30
2022-08-14T15:42:39.486Z,5.20
2022-08-14T15:45:10.288Z,5.05
2022-08-14T15:47:42.889Z,5.18
2022-08-14T15:50:12.878Z,5.18
2022-08-14T15:52:43.074Z,5.43
2022-08-14T15:55:14.882Z,5.35
2022-08-14T15:58:01.812Z,5.25
2022-08-14T16:00:51.718Z,5.38
2022-08-14T16:03:27.878Z,5.22
2022-08-14T16:06:03.799Z,4.88
2022-08-14T16:08:32.411Z,5.07
2022-08-14T16:11:01.514Z,4.55
2022-08-14T16:13:41.500Z,4.68
2022-08-14T16:16:47.702Z,5.03
2022-08-14T16:19:07.453Z,4.90
2022-08-14T16:22:02.540Z,5.00
2022-08-14T16:24:59.689Z,4.95
2022-08-14T16:27:34.238Z,4.93
2022-08-14T16:30:10.791Z,5.32
2022-08-14T16:32:55.208Z,5.53
2022-08-14T16:35:42.386Z,4.95
2022-08-14T16:38:19.645Z,5.03
2022-08-14T16:41:23.069Z,6.07
2022-08-14T16:43:54.026Z,5.05
2022-08-14T16:46:28.778Z,5.07
2022-08-14T16:48:58.738Z,5.10
2022-08-14T16:51:29.539Z,4.80
2022-08-14T16:54:00.083Z,4.53
2022-08-14T16:56:34.981Z,5.15
2022-08-14T16:59:06.680Z,5.30
2022-08-14T17:01:37.834Z,5.32
2022-08-14T17:04:14.855Z,5.53
2022-08-14T17:06:55.752Z,5.20
2022-08-14T17:09:26.265Z,4.93
2022-08-14T17:11:57.685Z,5.00
2022-08-14T17:14:27.721Z,4.72
2022-08-14T17:17:00.239Z,4.75
2022-08-14T17:19:40.184Z,5.28
2022-08-14T17:22:12.217Z,5.10
2022-08-14T17:24:57.483Z,5.55
2022-08-14T17:27:32.394Z,5.05
2022-08-14T17:30:02.357Z,4.95
2022-08-14T17:32:56.671Z,5.18
2022-08-14T17:35:38.903Z,5.45
2022-08-14T17:38:39.265Z,4.95
2022-08-14T17:41:32.747Z,4.82
2022-08-14T17:44:12.645Z,5.15
2022-08-14T17:46:43.241Z,5.45
2022-08-14T17:49:15.063Z,31.23
2022-08-14T17:52:07.367Z,101.28
2022-08-14T17:54:40.310Z,263.05
2022-08-14T17:57:14.199Z,163.98
2022-08-14T17:59:44.140Z,101.50
2022-08-14T18:02:16.829Z,73.05
2022-08-14T18:04:46.842Z,73.95
2022-08-14T18:08:00.428Z,79.53
2022-08-14T18:13:02.827Z,136.85
2022-08-14T18:15:36.902Z,47.83
2022-08-14T18:18:08.963Z,40.22
2022-08-14T18:23:26.741Z,25.70
2022-08-14T18:25:58.864Z,26.00
2022-08-14T18:28:51.582Z,21.42
2022-08-14T18:31:42.221Z,18.65
2022-08-14T18:34:30.889Z,18.88
2022-08-14T18:37:16.556Z,15.65
2022-08-14T18:40:02.377Z,14.55
2022-08-14T18:42:44.114Z,9.20
2022-08-14T18:45:16.089Z,12.35
2022-08-14T18:48:14.299Z,10.65
2022-08-14T18:50:48.837Z,9.38
2022-08-14T18:53:24.493Z,8.32
2022-08-14T18:55:55.634Z,10.43
2022-08-14T18:58:29.497Z,8.45
2022-08-14T19:01:09.124Z,7.55
2022-08-14T19:03:56.154Z,7.10
2022-08-14T19:06:41.251Z,6.93
2022-08-14T19:09:10.637Z,7.60
2022-08-14T19:11:46.764Z,7.93
2022-08-14T19:14:39.263Z,7.55
2022-08-14T19:17:23.858Z,6.57
2022-08-14T19:20:07.165Z,6.65
2022-08-14T19:22:37.148Z,7.15
2022-08-14T19:25:07.510Z,6.90
2022-08-14T19:27:41.117Z,6.13
2022-08-14T19:30:24.148Z,6.85
2022-08-14T19:32:56.088Z,6.88
2022-08-14T19:36:00.218Z,6.45
2022-08-14T19:38:47.810Z,6.70
2022-08-14T19:41:17.117Z,6.20
2022-08-14T19:43:56.612Z,7.13
2022-08-14T19:46:39.032Z,6.55
2022-08-14T19:49:21.586Z,6.67
2022-08-14T19:52:17.557Z,5.88
2022-08-14T19:54:50.514Z,6.15
2022-08-14T19:57:20.963Z,6.60
2022-08-14T19:59:57.182Z,7.15
2022-08-14T20:02:29.887Z,6.88
2022-08-14T20:05:00.525Z,6.22
2022-08-14T20:07:59.348Z,6.68
2022-08-14T20:11:04.630Z,6.47
2022-08-14T20:13:23.566Z,6.80
2022-08-14T20:15:52.670Z,6.65
2022-08-14T20:18:49.255Z,6.75
2022-08-14T20:21:15.890Z,7.25
2022-08-14T20:23:47.856Z,7.40
2022-08-14T20:26:31.293Z,6.80
2022-08-14T20:29:04.682Z,7.43
2022-08-14T20:31:37.050Z,8.20
2022-08-14T20:34:07.930Z,8.13
2022-08-14T20:36:48.017Z,7.45
2022-08-14T20:39:18.065Z,7.70
2022-08-14T20:41:51.511Z,7.30
2022-08-14T20:44:41.422Z,7.72
2022-08-14T20:47:16.191Z,7.82
2022-08-14T20:49:45.599Z,8.07
2022-08-14T20:52:19.094Z,8.15
2022-08-14T20:54:51.822Z,8.05
2022-08-14T20:57:20.838Z,8.23
2022-08-14T20:59:53.164Z,8.30
2022-08-14T21:02:29.530Z,8.20
2022-08-14T21:05:00.640Z,8.18
2022-08-14T21:07:36.164Z,8.82
2022-08-14T21:10:35.665Z,9.40
2022-08-14T21:13:25.590Z,8.65
2022-08-14T21:15:57.206Z,8.50
2022-08-14T21:18:30.474Z,8.68
2022-08-14T21:21:01.369Z,8.43
2022-08-14T21:23:54.048Z,8.85
2022-08-14T21:26:50.582Z,9.32
2022-08-14T21:29:14.546Z,8.75
2022-08-14T21:31:55.377Z,9.15
2022-08-14T21:34:31.537Z,9.32
2022-08-14T21:37:08.858Z,9.20
2022-08-14T21:39:38.090Z,9.68
2022-08-14T21:42:07.002Z,9.45
2022-08-14T21:44:43.575Z,10.15
2022-08-14T21:47:16.614Z,9.88
2022-08-14T21:49:48.114Z,9.35
2022-08-14T21:52:51.347Z,9.35
2022-08-14T21:55:09.458Z,8.90
2022-08-14T21:57:55.997Z,9.18
2022-08-14T22:00:30.166Z,9.52
2022-08-14T22:03:03.754Z,8.48
2022-08-14T22:05:33.988Z,9.10
2022-08-14T22:08:07.475Z,9.70
2022-08-14T22:10:42.324Z,11.25
2022-08-14T22:13:11.770Z,10.52
2022-08-14T22:15:43.907Z,11.02
2022-08-14T22:18:20.605Z,10.95
2022-08-14T22:20:53.548Z,12.13
2022-08-14T22:23:23.848Z,12.30
2022-08-14T22:25:53.352Z,11.45
2022-08-14T22:28:23.032Z,12.63
2022-08-14T22:30:55.314Z,12.25
2022-08-14T22:33:31.182Z,12.05
2022-08-14T22:36:25.063Z,13.35
2022-08-14T22:38:54.712Z,13.50
2022-08-14T22:41:30.529Z,13.48
2022-08-14T22:44:04.372Z,13.50
2022-08-14T22:46:35.157Z,13.13
2022-08-14T22:49:15.450Z,13.48
2022-08-14T22:51:54.765Z,13.73
2022-08-14T22:57:13.379Z,14.48
2022-08-14T22:59:43.226Z,15.43
2022-08-14T23:02:13.697Z,130.13
2022-08-14T23:04:54.088Z,125.45
2022-08-14T23:07:25.267Z,129.02
2022-08-14T23:10:31.955Z,130.65
2022-08-14T23:13:03.659Z,158.35
2022-08-14T23:15:33.533Z,153.13
2022-08-14T23:18:03.465Z,157.45
2022-08-14T23:20:33.779Z,137.50
2022-08-14T23:23:12.615Z,99.32
2022-08-14T23:25:57.291Z,78.43
2022-08-14T23:28:33.549Z,45.15
2022-08-14T23:31:28.424Z,43.13
2022-08-14T23:34:06.720Z,159.27
2022-08-14T23:36:52.637Z,130.88
2022-08-14T23:39:30.329Z,159.18
2022-08-14T23:42:02.490Z,182.15
2022-08-14T23:44:35.151Z,222.65
2022-08-14T23:47:11.560Z,181.40
2022-08-14T23:50:00.738Z,199.25
2022-08-14T23:52:50.150Z,135.35
2022-08-14T23:55:21.177Z,108.07
2022-08-14T23:57:58.001Z,153.45
